Time;durP1;ratioP1;P1;durP2;ratioP2;P2;SDS_P1;SDS_P2;PMS_P1;PMS_P2;Temp;Humidity;BMP_temperature;BMP_pressure;BME280_temperature;BME280_humidity;BME280_pressure;Samples;Min_cycle;Max_cycle;Signal;HPM_P1;HPM_P2
2023/07/17 00:01:17;;;;;;;4.53;2.55;;;21.20;78.90;;;;;;5049523;28;20054;-85
2023/07/17 00:03:43;;;;;;;5.20;2.88;;;21.20;79.00;;;;;;5049956;28;20021;-87
2023/07/17 00:06:08;;;;;;;6.45;3.20;;;21.00;78.80;;;;;;5048555;28;20025;-86
2023/07/17 00:08:34;;;;;;;5.18;2.90;;;21.20;79.10;;;;;;5050480;28;20118;-87
2023/07/17 00:10:59;;;;;;;6.03;3.00;;;21.20;79.20;;;;;;5051126;28;20033;-86
2023/07/17 00:13:25;;;;;;;5.72;3.00;;;21.10;79.10;;;;;;5047695;28;20037;-86
2023/07/17 00:15:51;;;;;;;5.68;2.88;;;21.10;79.00;;;;;;5054775;28;20032;-87
2023/07/17 00:18:16;;;;;;;6.53;2.97;;;21.10;79.30;;;;;;5053917;28;20037;-85
2023/07/17 00:20:42;;;;;;;5.60;2.75;;;21.10;79.20;;;;;;5052073;28;20477;-85
2023/07/17 00:23:08;;;;;;;6.50;2.95;;;21.10;79.00;;;;;;5053878;28;20025;-86
2023/07/17 00:25:33;;;;;;;6.95;2.92;;;21.10;79.30;;;;;;5051978;28;20495;-86
2023/07/17 00:27:59;;;;;;;5.75;3.00;;;21.10;79.20;;;;;;5051887;28;20028;-85
2023/07/17 00:30:24;;;;;;;5.50;2.85;;;21.10;79.10;;;;;;5053170;28;20397;-85
2023/07/17 00:32:50;;;;;;;7.63;3.08;;;21.10;79.30;;;;;;5050789;28;20037;-85
2023/07/17 00:35:15;;;;;;;6.68;3.15;;;21.10;79.40;;;;;;5052774;28;20067;-84
2023/07/17 00:37:42;;;;;;;6.80;3.35;;;21.10;79.40;;;;;;5051172;28;20127;-85
2023/07/17 00:40:08;;;;;;;5.18;2.88;;;21.10;79.40;;;;;;5050775;28;20032;-83
2023/07/17 00:42:34;;;;;;;6.47;2.83;;;21.10;79.50;;;;;;5052084;28;20021;-85
2023/07/17 00:45:00;;;;;;;7.22;3.00;;;21.10;79.50;;;;;;5052476;28;20540;-83
2023/07/17 00:47:27;;;;;;;5.45;3.03;;;21.20;79.60;;;;;;5050207;28;20033;-85
2023/07/17 00:49:53;;;;;;;6.15;2.80;;;21.20;79.50;;;;;;5050021;28;20513;-85
2023/07/17 00:52:18;;;;;;;5.28;2.85;;;21.20;79.30;;;;;;5050320;28;20441;-85
2023/07/17 00:54:45;;;;;;;6.53;2.97;;;21.20;79.50;;;;;;5049599;28;20067;-85
2023/07/17 00:57:14;;;;;;;6.03;3.20;;;21.20;79.20;;;;;;5049800;28;20063;-85
2023/07/17 00:59:41;;;;;;;6.15;3.17;;;21.20;79.30;;;;;;5049888;28;20386;-86
2023/07/17 01:02:08;;;;;;;5.03;2.70;;;21.20;79.10;;;;;;5050915;28;20474;-84
2023/07/17 01:04:33;;;;;;;6.45;2.97;;;21.20;79.20;;;;;;5049452;28;20048;-87
2023/07/17 01:06:59;;;;;;;5.82;2.92;;;21.20;79.20;;;;;;5048818;28;20028;-83
2023/07/17 01:09:25;;;;;;;6.80;3.08;;;21.20;78.90;;;;;;5050664;28;20082;-86
2023/07/17 01:11:50;;;;;;;6.63;3.45;;;21.10;79.00;;;;;;5050318;28;20068;-84
2023/07/17 01:14:17;;;;;;;6.15;3.25;;;21.10;79.00;;;;;;5050404;28;20050;-85
2023/07/17 01:16:44;;;;;;;5.80;3.15;;;21.10;79.00;;;;;;5047832;28;20041;-86
2023/07/17 01:19:10;;;;;;;7.65;3.28;;;21.10;79.30;;;;;;5050467;28;20052;-88
2023/07/17 01:21:40;;;;;;;7.22;3.10;;;21.10;79.40;;;;;;5050345;28;20110;-84
2023/07/17 01:24:05;;;;;;;6.30;3.20;;;21.10;79.30;;;;;;5049975;28;20075;-85
2023/07/17 01:26:31;;;;;;;7.07;3.10;;;21.10;79.40;;;;;;5047939;28;20024;-85
2023/07/17 01:28:56;;;;;;;6.35;2.90;;;21.10;79.50;;;;;;5049575;28;20478;-85
2023/07/17 01:31:22;;;;;;;5.80;3.05;;;21.10;79.30;;;;;;5048335;28;20035;-85
2023/07/17 01:33:47;;;;;;;6.43;3.00;;;21.10;79.50;;;;;;5050067;28;20032;-86
2023/07/17 01:36:15;;;;;;;6.43;3.00;;;21.10;79.50;;;;;;5047306;28;20056;-85
2023/07/17 01:38:40;;;;;;;5.95;3.08;;;21.10;79.60;;;;;;5049317;28;20058;-87
2023/07/17 01:41:06;;;;;;;6.95;3.40;;;21.00;79.40;;;;;;5049559;28;20436;-87
2023/07/17 01:43:31;;;;;;;7.10;3.13;;;21.00;79.30;;;;;;5049030;28;20025;-85
2023/07/17 01:45:57;;;;;;;5.65;3.28;;;21.10;79.50;;;;;;5047377;28;20061;-85
2023/07/17 01:48:22;;;;;;;6.15;2.90;;;21.10;79.50;;;;;;5047471;28;20031;-85
2023/07/17 01:50:48;;;;;;;6.72;3.45;;;21.00;79.30;;;;;;5049122;28;20378;-85
2023/07/17 01:53:21;;;;;;;6.53;3.08;;;21.00;79.40;;;;;;5047547;28;20136;-85
2023/07/17 01:55:46;;;;;;;5.68;3.03;;;21.00;79.30;;;;;;5047484;28;20055;-85
2023/07/17 01:58:12;;;;;;;6.18;3.25;;;21.00;79.40;;;;;;5048092;28;20064;-86
2023/07/17 02:00:37;;;;;;;6.47;3.35;;;21.00;79.40;;;;;;5047179;28;20083;-85
2023/07/17 02:03:03;;;;;;;6.22;3.05;;;21.00;79.50;;;;;;5048509;28;20033;-83
2023/07/17 02:05:28;;;;;;;6.00;3.08;;;21.00;79.50;;;;;;5048484;28;20021;-85
2023/07/17 02:07:54;;;;;;;6.70;3.13;;;21.00;79.60;;;;;;5048208;28;20029;-84
2023/07/17 02:10:21;;;;;;;6.88;3.20;;;21.00;79.60;;;;;;5043353;28;20376;-86
2023/07/17 02:12:46;;;;;;;5.70;3.00;;;21.10;79.70;;;;;;5041702;28;20037;-83
2023/07/17 02:15:13;;;;;;;6.00;3.33;;;21.00;79.70;;;;;;5038205;28;20063;-85
2023/07/17 02:17:39;;;;;;;6.90;3.05;;;21.10;79.70;;;;;;5046213;28;20044;-83
2023/07/17 02:20:13;;;;;;;6.68;3.08;;;21.10;79.50;;;;;;5048005;28;20025;-85
2023/07/17 02:22:39;;;;;;;7.22;3.30;;;21.10;79.40;;;;;;5047135;28;20083;-85
2023/07/17 02:25:05;;;;;;;7.82;3.40;;;21.10;79.60;;;;;;5046353;28;20025;-85
2023/07/17 02:27:32;;;;;;;6.22;2.92;;;21.10;79.50;;;;;;5046098;28;20039;-84
2023/07/17 02:29:58;;;;;;;6.93;3.05;;;21.00;79.10;;;;;;5046660;28;20063;-85
2023/07/17 02:32:24;;;;;;;6.43;3.00;;;21.10;79.40;;;;;;5046160;28;20029;-84
2023/07/17 02:34:49;;;;;;;5.30;2.70;;;21.10;79.40;;;;;;5046329;28;20099;-85
2023/07/17 02:37:15;;;;;;;6.35;3.00;;;21.10;79.50;;;;;;5045250;28;20152;-84
2023/07/17 02:39:40;;;;;;;7.35;3.00;;;21.00;79.30;;;;;;5050920;28;20025;-88
2023/07/17 02:42:06;;;;;;;5.97;3.22;;;21.10;79.50;;;;;;5053555;28;20032;-87
2023/07/17 02:44:31;;;;;;;5.88;3.30;;;21.10;79.40;;;;;;5054590;28;20727;-87
2023/07/17 02:46:57;;;;;;;7.15;2.97;;;21.00;79.40;;;;;;5052672;28;20025;-87
2023/07/17 02:49:22;;;;;;;5.80;3.13;;;21.00;79.60;;;;;;5051802;28;20481;-87
2023/07/17 02:51:48;;;;;;;6.70;3.22;;;21.00;79.80;;;;;;5052542;28;20516;-86
2023/07/17 02:54:13;;;;;;;6.65;3.40;;;21.00;79.90;;;;;;5050795;28;20468;-84
2023/07/17 02:56:39;;;;;;;5.60;2.92;;;21.00;80.10;;;;;;5051549;28;20520;-87
2023/07/17 02:59:05;;;;;;;6.43;3.00;;;21.00;80.00;;;;;;5051247;28;20033;-88
2023/07/17 03:01:31;;;;;;;7.15;3.17;;;21.00;80.00;;;;;;5054440;28;20468;-87
2023/07/17 03:03:56;;;;;;;6.07;3.00;;;21.00;80.10;;;;;;5053405;28;20025;-84
2023/07/17 03:06:22;;;;;;;6.47;3.17;;;21.00;80.20;;;;;;5053633;28;20025;-86
2023/07/17 03:08:48;;;;;;;5.85;2.90;;;21.00;80.20;;;;;;5052605;28;20123;-87
2023/07/17 03:11:13;;;;;;;6.25;3.00;;;21.00;80.30;;;;;;5051809;28;20032;-87
2023/07/17 03:13:39;;;;;;;5.88;2.97;;;20.90;80.30;;;;;;5053141;28;20029;-85
2023/07/17 03:16:04;;;;;;;5.93;3.08;;;21.00;80.40;;;;;;5051833;28;20021;-85
2023/07/17 03:18:30;;;;;;;6.25;3.15;;;20.90;80.20;;;;;;5052657;28;20033;-88
2023/07/17 03:20:55;;;;;;;7.30;3.50;;;21.00;80.40;;;;;;5055720;28;20071;-85
2023/07/17 03:23:23;;;;;;;6.55;3.25;;;21.00;80.50;;;;;;5042350;28;20028;-86
2023/07/17 03:25:48;;;;;;;5.93;2.92;;;21.00;80.50;;;;;;5045261;28;20013;-85
2023/07/17 03:28:14;;;;;;;5.57;2.95;;;21.00;80.60;;;;;;5038940;28;20026;-88
2023/07/17 03:30:40;;;;;;;6.68;3.10;;;20.90;80.60;;;;;;5047726;28;20385;-85
2023/07/17 03:33:06;;;;;;;5.65;2.80;;;20.90;80.60;;;;;;5051370;28;20029;-85
2023/07/17 03:35:33;;;;;;;6.72;2.92;;;20.90;80.50;;;;;;5050061;28;20662;-88
2023/07/17 03:37:59;;;;;;;6.70;2.78;;;20.90;80.70;;;;;;5049597;28;20021;-89
2023/07/17 03:40:24;;;;;;;7.53;3.00;;;20.90;80.70;;;;;;5050317;28;20048;-88
2023/07/17 03:42:50;;;;;;;5.10;2.88;;;20.90;80.70;;;;;;5048812;28;20040;-88
2023/07/17 03:45:15;;;;;;;5.85;3.25;;;21.00;80.70;;;;;;5048478;28;20025;-86
2023/07/17 03:47:41;;;;;;;5.78;2.90;;;20.90;80.60;;;;;;5049326;28;20084;-85
2023/07/17 03:50:07;;;;;;;5.93;2.70;;;21.00;80.50;;;;;;5048796;28;20036;-84
2023/07/17 03:52:32;;;;;;;5.80;2.88;;;21.00;80.50;;;;;;5049341;28;20055;-84
2023/07/17 03:54:58;;;;;;;8.48;2.90;;;21.00;80.50;;;;;;5049919;28;20277;-84
2023/07/17 03:57:23;;;;;;;7.75;2.95;;;21.00;80.30;;;;;;5048029;28;20464;-85
2023/07/17 03:59:53;;;;;;;6.90;3.10;;;21.00;80.10;;;;;;5050205;28;20021;-85
2023/07/17 04:02:20;;;;;;;6.50;3.00;;;21.00;80.20;;;;;;5048885;28;20021;-89
2023/07/17 04:04:46;;;;;;;6.25;2.88;;;21.00;80.00;;;;;;5048985;28;20536;-86
2023/07/17 04:07:12;;;;;;;8.63;3.03;;;21.00;79.90;;;;;;5049744;28;20044;-86
2023/07/17 04:09:38;;;;;;;7.20;3.30;;;21.00;79.90;;;;;;5048910;28;20029;-86
2023/07/17 04:12:05;;;;;;;6.10;2.53;;;21.00;80.00;;;;;;5047573;28;20161;-86
2023/07/17 04:14:31;;;;;;;6.47;2.58;;;21.00;80.10;;;;;;5036680;28;20095;-85
2023/07/17 04:16:57;;;;;;;5.43;2.70;;;21.00;80.10;;;;;;5032991;28;20144;-84
2023/07/17 04:19:23;;;;;;;6.65;2.85;;;21.00;80.20;;;;;;5029682;28;20598;-84
2023/07/17 04:21:48;;;;;;;5.82;2.50;;;20.90;80.30;;;;;;5028925;28;20512;-83
2023/07/17 04:24:14;;;;;;;6.13;2.95;;;21.00;80.50;;;;;;5028005;28;20021;-84
2023/07/17 04:26:39;;;;;;;7.03;3.17;;;21.00;80.50;;;;;;5041856;28;20021;-83
2023/07/17 04:29:06;;;;;;;6.97;2.90;;;20.90;80.70;;;;;;5041574;28;20470;-85
2023/07/17 04:31:32;;;;;;;6.75;2.90;;;20.90;80.50;;;;;;5044334;28;20621;-85
2023/07/17 04:33:58;;;;;;;8.07;2.65;;;20.90;80.80;;;;;;5048708;28;20127;-84
2023/07/17 04:36:23;;;;;;;6.60;2.60;;;20.90;80.60;;;;;;5047886;28;20262;-83
2023/07/17 04:38:49;;;;;;;5.95;3.00;;;20.90;80.70;;;;;;5048046;28;20029;-83
2023/07/17 04:41:16;;;;;;;5.10;2.58;;;20.80;80.70;;;;;;5047171;28;20137;-87
2023/07/17 04:43:42;;;;;;;6.40;2.60;;;20.90;80.80;;;;;;5049632;28;20393;-84
2023/07/17 04:46:07;;;;;;;6.07;2.72;;;21.00;80.70;;;;;;5049665;28;20036;-83
2023/07/17 04:48:33;;;;;;;5.78;2.78;;;20.90;80.90;;;;;;5047536;28;20039;-84
2023/07/17 04:50:58;;;;;;;6.43;2.67;;;20.90;80.80;;;;;;5047749;28;20086;-87
2023/07/17 04:53:24;;;;;;;5.03;2.78;;;20.90;80.80;;;;;;5047612;28;20393;-87
2023/07/17 04:55:49;;;;;;;5.75;2.78;;;20.90;80.80;;;;;;5048013;28;20497;-88
2023/07/17 04:58:17;;;;;;;6.07;2.75;;;20.90;80.80;;;;;;5047465;28;20104;-83
2023/07/17 05:00:46;;;;;;;5.22;2.45;;;20.90;80.90;;;;;;5049536;28;20040;-89
2023/07/17 05:03:14;;;;;;;5.68;2.55;;;20.90;80.70;;;;;;5051033;28;20174;-83
2023/07/17 05:05:40;;;;;;;5.50;2.42;;;20.90;80.80;;;;;;5051036;28;20140;-86
2023/07/17 05:08:06;;;;;;;5.20;2.45;;;20.90;80.60;;;;;;5050509;28;20508;-88
2023/07/17 05:10:31;;;;;;;5.20;2.30;;;20.90;80.80;;;;;;5052017;28;20033;-84
2023/07/17 05:12:57;;;;;;;4.78;2.47;;;20.90;80.70;;;;;;5051897;28;20029;-83
2023/07/17 05:15:23;;;;;;;6.20;2.88;;;20.90;80.80;;;;;;5053191;28;20448;-86
2023/07/17 05:17:48;;;;;;;5.03;2.50;;;20.90;80.70;;;;;;5051915;28;20036;-83
2023/07/17 05:20:14;;;;;;;5.88;2.85;;;21.00;80.70;;;;;;5051900;28;20021;-83
2023/07/17 05:22:39;;;;;;;5.35;2.65;;;21.00;80.70;;;;;;5050451;28;20098;-83
2023/07/17 05:25:05;;;;;;;5.20;2.53;;;21.00;80.50;;;;;;5049087;28;20025;-82
2023/07/17 05:27:31;;;;;;;8.30;2.45;;;21.00;80.30;;;;;;5050853;28;20025;-82
2023/07/17 05:29:56;;;;;;;8.95;2.90;;;21.00;80.30;;;;;;5049597;28;20541;-82
2023/07/17 05:32:22;;;;;;;8.13;2.67;;;21.00;80.50;;;;;;5051364;28;20807;-83
2023/07/17 05:34:49;;;;;;;8.68;3.17;;;21.00;80.30;;;;;;5049576;28;20106;-82
2023/07/17 05:37:17;;;;;;;8.20;2.60;;;21.10;80.20;;;;;;5052587;28;20017;-81
2023/07/17 05:39:43;;;;;;;11.30;3.13;;;21.20;80.20;;;;;;5052897;28;20024;-82
2023/07/17 05:42:08;;;;;;;6.70;2.53;;;21.20;80.20;;;;;;5053118;28;20090;-82
2023/07/17 05:44:34;;;;;;;9.27;2.80;;;21.30;80.10;;;;;;5054151;28;20457;-82
2023/07/17 05:46:59;;;;;;;6.30;2.40;;;21.30;79.90;;;;;;5052657;28;20032;-82
2023/07/17 05:49:25;;;;;;;8.45;2.83;;;21.30;80.00;;;;;;5052586;28;20507;-82
2023/07/17 05:51:50;;;;;;;8.68;2.53;;;21.40;80.20;;;;;;5052865;28;20031;-82
2023/07/17 05:54:16;;;;;;;6.60;2.97;;;21.40;80.50;;;;;;5052720;28;20466;-81
2023/07/17 05:56:41;;;;;;;6.43;2.50;;;21.50;81.30;;;;;;5056114;28;20032;-84
2023/07/17 05:59:07;;;;;;;9.40;2.45;;;21.50;81.40;;;;;;5057561;28;20029;-83
2023/07/17 06:01:33;;;;;;;8.02;2.50;;;21.60;81.30;;;;;;5057437;28;20462;-83
2023/07/17 06:03:58;;;;;;;9.48;2.90;;;21.80;80.70;;;;;;5057610;28;20021;-83
2023/07/17 06:06:24;;;;;;;8.13;2.45;;;21.80;80.60;;;;;;5057433;28;20370;-82
2023/07/17 06:08:49;;;;;;;12.48;3.38;;;22.00;80.50;;;;;;5056867;28;20028;-83
2023/07/17 06:11:15;;;;;;;8.35;2.50;;;22.00;80.00;;;;;;5056677;28;20029;-84
2023/07/17 06:13:40;;;;;;;8.52;2.75;;;22.10;79.60;;;;;;5056379;28;20516;-83
2023/07/17 06:16:06;;;;;;;7.95;2.95;;;22.20;79.30;;;;;;5057365;28;20062;-81
2023/07/17 06:18:31;;;;;;;8.48;2.70;;;22.30;79.00;;;;;;5057514;28;20119;-84
2023/07/17 06:20:57;;;;;;;8.13;2.30;;;22.30;78.80;;;;;;5057450;28;20017;-83
2023/07/17 06:23:22;;;;;;;8.10;2.78;;;22.40;78.70;;;;;;5058757;28;20049;-83
2023/07/17 06:25:48;;;;;;;8.73;2.88;;;22.40;78.50;;;;;;5056520;28;20027;-84
2023/07/17 06:28:14;;;;;;;9.40;3.22;;;22.50;78.30;;;;;;5056149;28;20397;-83
2023/07/17 06:30:40;;;;;;;7.57;2.30;;;22.60;78.20;;;;;;5056512;28;20082;-84
2023/07/17 06:33:05;;;;;;;5.72;2.08;;;22.60;78.10;;;;;;5057535;28;20027;-84
2023/07/17 06:35:31;;;;;;;7.80;2.78;;;22.60;77.70;;;;;;5055967;28;20119;-82
2023/07/17 06:37:57;;;;;;;7.05;2.42;;;22.50;78.10;;;;;;5055342;28;20115;-83
2023/07/17 06:40:22;;;;;;;6.93;2.67;;;22.50;78.50;;;;;;5055675;28;20447;-83
2023/07/17 06:42:48;;;;;;;8.13;2.30;;;22.50;78.90;;;;;;5055969;28;20036;-82
2023/07/17 06:45:13;;;;;;;7.40;2.50;;;22.40;79.20;;;;;;5055534;28;20017;-83
2023/07/17 06:47:39;;;;;;;6.80;2.38;;;22.40;79.40;;;;;;5053801;28;20112;-83
2023/07/17 06:50:05;;;;;;;6.80;2.25;;;22.40;79.70;;;;;;5054543;28;20477;-83
2023/07/17 06:52:31;;;;;;;7.10;2.28;;;22.30;79.70;;;;;;5055251;28;20396;-84
2023/07/17 06:54:56;;;;;;;8.85;2.72;;;22.30;79.90;;;;;;5056151;28;20025;-82
2023/07/17 06:57:22;;;;;;;6.78;2.50;;;22.30;80.00;;;;;;5054103;28;20047;-82
2023/07/17 06:59:48;;;;;;;7.05;2.25;;;22.30;80.10;;;;;;5055779;28;20021;-82
2023/07/17 07:02:13;;;;;;;6.07;2.30;;;22.30;80.10;;;;;;5054203;28;20049;-83
2023/07/17 07:04:39;;;;;;;5.97;1.98;;;22.30;80.00;;;;;;5054054;28;20017;-83
2023/07/17 07:07:04;;;;;;;5.18;1.92;;;22.30;80.20;;;;;;5053340;28;20188;-82
2023/07/17 07:09:30;;;;;;;8.07;2.88;;;22.20;80.30;;;;;;5054838;28;20044;-82
2023/07/17 07:11:55;;;;;;;6.72;2.15;;;22.20;80.30;;;;;;5053368;28;20024;-81
2023/07/17 07:14:21;;;;;;;6.57;2.38;;;22.20;80.40;;;;;;5053426;28;20547;-82
2023/07/17 07:16:46;;;;;;;7.15;2.60;;;22.20;80.30;;;;;;5054228;28;20116;-82
2023/07/17 07:19:12;;;;;;;6.50;2.65;;;22.20;80.70;;;;;;5053042;28;20108;-82
2023/07/17 07:21:37;;;;;;;6.95;2.40;;;22.20;80.60;;;;;;5052781;28;20499;-82
2023/07/17 07:24:03;;;;;;;7.45;2.50;;;22.20;80.80;;;;;;5052299;28;20071;-82
2023/07/17 07:26:31;;;;;;;7.88;2.40;;;22.20;80.90;;;;;;5051932;28;20032;-83
2023/07/17 07:28:57;;;;;;;7.68;2.35;;;22.10;80.80;;;;;;5052780;28;20031;-82
2023/07/17 07:31:22;;;;;;;6.75;2.38;;;22.20;81.00;;;;;;5052477;28;20033;-82
2023/07/17 07:33:48;;;;;;;6.40;2.10;;;22.20;80.90;;;;;;5054038;28;20393;-83
2023/07/17 07:36:13;;;;;;;6.55;2.17;;;22.10;80.80;;;;;;5051653;28;20048;-82
2023/07/17 07:38:39;;;;;;;7.10;2.33;;;22.10;80.90;;;;;;5053508;28;20025;-82
2023/07/17 07:41:04;;;;;;;6.88;2.35;;;22.10;81.00;;;;;;5051848;28;20044;-82
2023/07/17 07:43:30;;;;;;;8.95;2.70;;;22.10;81.00;;;;;;5051694;28;20029;-82
2023/07/17 07:45:55;;;;;;;7.22;2.40;;;22.10;81.00;;;;;;5053285;28;20032;-83
2023/07/17 07:48:21;;;;;;;7.50;2.30;;;22.10;81.00;;;;;;5053010;28;20037;-83
2023/07/17 07:50:47;;;;;;;6.25;2.05;;;22.10;81.10;;;;;;5053458;28;20477;-82
2023/07/17 07:53:13;;;;;;;7.25;2.60;;;22.10;81.10;;;;;;5051811;28;20027;-82
2023/07/17 07:55:38;;;;;;;6.75;2.20;;;22.20;81.10;;;;;;5051976;28;20064;-82
2023/07/17 07:58:04;;;;;;;5.13;1.90;;;22.20;80.90;;;;;;5051522;28;20432;-82
2023/07/17 08:00:30;;;;;;;5.82;2.20;;;22.20;80.90;;;;;;5051678;28;20061;-82
2023/07/17 08:02:55;;;;;;;5.43;2.10;;;22.30;80.70;;;;;;5052916;28;20014;-82
2023/07/17 08:05:22;;;;;;;8.18;2.55;;;22.30;80.70;;;;;;5051371;28;20021;-82
2023/07/17 08:07:48;;;;;;;5.75;2.00;;;22.30;80.50;;;;;;5052605;28;20029;-82
2023/07/17 08:10:13;;;;;;;7.63;2.17;;;22.30;80.60;;;;;;5051220;28;20021;-82
2023/07/17 08:12:39;;;;;;;5.38;2.03;;;22.30;80.40;;;;;;5051135;28;20024;-82
2023/07/17 08:15:07;;;;;;;7.80;2.00;;;22.30;80.50;;;;;;5051175;28;20032;-82
2023/07/17 08:17:36;;;;;;;7.05;2.10;;;22.40;80.40;;;;;;5050456;28;20037;-81
2023/07/17 08:20:03;;;;;;;7.15;2.15;;;22.30;80.30;;;;;;5052633;28;20032;-82
2023/07/17 08:22:29;;;;;;;6.22;2.15;;;22.30;80.40;;;;;;5050916;28;20405;-81
2023/07/17 08:24:54;;;;;;;6.18;2.10;;;22.40;80.50;;;;;;5050653;28;20032;-83
2023/07/17 08:27:20;;;;;;;5.47;2.22;;;22.30;80.50;;;;;;5050272;28;20122;-82
2023/07/17 08:29:45;;;;;;;7.55;2.60;;;22.30;80.70;;;;;;5051992;28;20104;-82
2023/07/17 08:32:11;;;;;;;6.15;1.90;;;22.30;80.80;;;;;;5051827;28;20039;-82
2023/07/17 08:34:36;;;;;;;7.40;2.20;;;22.30;80.90;;;;;;5050820;28;20025;-82
2023/07/17 08:37:02;;;;;;;5.43;1.98;;;22.30;80.90;;;;;;5054062;28;20029;-81
2023/07/17 08:39:28;;;;;;;6.72;2.45;;;22.30;81.00;;;;;;5054436;28;20481;-82
2023/07/17 08:41:53;;;;;;;6.03;2.10;;;22.30;81.00;;;;;;5054346;28;20029;-83
2023/07/17 08:44:19;;;;;;;7.15;2.28;;;22.30;80.80;;;;;;5055428;28;20025;-82
2023/07/17 08:46:47;;;;;;;7.68;2.40;;;22.30;81.00;;;;;;5055416;28;20052;-82
2023/07/17 08:49:18;;;;;;;6.63;2.03;;;22.30;81.00;;;;;;5054022;28;20079;-82
2023/07/17 08:51:48;;;;;;;6.22;2.50;;;22.30;80.80;;;;;;5054036;28;20488;-82
2023/07/17 08:54:17;;;;;;;6.47;2.47;;;22.30;80.90;;;;;;5053978;28;20037;-82
2023/07/17 08:56:44;;;;;;;5.38;2.05;;;22.30;80.90;;;;;;5053721;28;20442;-82
2023/07/17 08:59:10;;;;;;;6.78;2.33;;;22.30;80.80;;;;;;5055080;28;20036;-82
2023/07/17 09:01:37;;;;;;;5.65;2.10;;;22.40;80.80;;;;;;5053908;28;20389;-81
2023/07/17 09:04:06;;;;;;;5.65;2.50;;;22.40;80.80;;;;;;5054923;28;20028;-82
2023/07/17 09:06:32;;;;;;;6.55;2.33;;;22.30;80.70;;;;;;5054546;28;20429;-82
2023/07/17 09:08:57;;;;;;;6.13;2.72;;;22.30;80.60;;;;;;5054952;28;20104;-82
2023/07/17 09:11:23;;;;;;;6.07;2.28;;;22.30;80.50;;;;;;5053548;28;20037;-82
2023/07/17 09:13:51;;;;;;;4.72;1.98;;;22.40;80.70;;;;;;5056370;28;20075;-83
2023/07/17 09:16:19;;;;;;;6.10;1.88;;;22.40;80.70;;;;;;5059766;28;20036;-84
2023/07/17 09:18:45;;;;;;;5.05;1.92;;;22.40;80.50;;;;;;5057792;28;20035;-83
2023/07/17 09:21:12;;;;;;;5.55;2.10;;;22.40;80.50;;;;;;5058386;28;20112;-84
2023/07/17 09:23:55;;;;;;;5.90;2.17;;;22.50;80.40;;;;;;5057855;28;20489;-83
2023/07/17 09:26:23;;;;;;;5.55;2.00;;;22.50;80.30;;;;;;5058270;28;20397;-83
2023/07/17 09:28:56;;;;;;;4.88;1.67;;;22.50;80.10;;;;;;5057308;28;20385;-83
2023/07/17 09:31:28;;;;;;;5.65;1.92;;;22.60;80.10;;;;;;5058830;28;20064;-82
2023/07/17 09:33:57;;;;;;;5.03;1.90;;;22.60;80.00;;;;;;5056575;28;20021;-83
2023/07/17 09:36:22;;;;;;;5.28;1.90;;;22.60;79.90;;;;;;5057615;28;20025;-83
2023/07/17 09:38:57;;;;;;;4.70;2.10;;;22.60;79.80;;;;;;5059031;28;20036;-83
2023/07/17 09:41:24;;;;;;;4.90;1.83;;;22.60;79.70;;;;;;5057990;28;20021;-83
2023/07/17 09:44:07;;;;;;;5.15;2.20;;;22.60;79.80;;;;;;5058056;28;20119;-83
2023/07/17 09:46:38;;;;;;;6.53;2.53;;;22.60;79.80;;;;;;5056679;28;20392;-83
2023/07/17 09:49:04;;;;;;;;;;;22.60;79.90;;;;;;5057699;28;20029;-84
2023/07/17 09:51:30;;;;;;;5.00;1.75;;;22.60;80.00;;;;;;5056479;28;20289;-83
2023/07/17 09:53:58;;;;;;;4.05;1.80;;;22.60;80.00;;;;;;5057888;28;20028;-84
2023/07/17 09:56:28;;;;;;;4.05;1.70;;;22.60;80.10;;;;;;5056196;28;20036;-83
2023/07/17 09:58:57;;;;;;;4.10;1.77;;;22.60;80.20;;;;;;5056578;28;20025;-82
2023/07/17 10:01:25;;;;;;;3.70;1.90;;;22.50;80.20;;;;;;5057553;28;20027;-82
2023/07/17 10:03:51;;;;;;;4.95;1.70;;;22.50;80.30;;;;;;5055829;28;20067;-83
2023/07/17 10:06:19;;;;;;;4.40;1.98;;;22.50;80.50;;;;;;5055128;28;20025;-83
2023/07/17 10:08:52;;;;;;;4.57;2.00;;;22.40;80.50;;;;;;5055974;28;20096;-82
2023/07/17 10:11:18;;;;;;;5.95;2.30;;;22.40;80.70;;;;;;5055403;28;20028;-81
2023/07/17 10:13:48;;;;;;;4.68;2.03;;;22.40;80.70;;;;;;5056979;28;20025;-83
2023/07/17 10:16:18;;;;;;;4.88;1.92;;;22.40;80.70;;;;;;5055924;28;20036;-82
2023/07/17 10:18:53;;;;;;;4.40;2.17;;;22.40;80.70;;;;;;5054901;28;20029;-83
2023/07/17 10:21:19;;;;;;;5.88;2.50;;;22.40;80.60;;;;;;5056295;28;20017;-82
2023/07/17 10:23:48;;;;;;;4.78;2.00;;;22.40;80.60;;;;;;5056138;28;20029;-82
2023/07/17 10:26:16;;;;;;;4.05;1.92;;;22.50;80.60;;;;;;5053660;28;20481;-82
2023/07/17 10:28:47;;;;;;;5.47;2.17;;;22.50;80.60;;;;;;5053729;28;20120;-83
2023/07/17 10:31:26;;;;;;;5.53;2.22;;;22.50;80.70;;;;;;5054302;28;20033;-83
2023/07/17 10:33:58;;;;;;;4.65;1.92;;;22.40;80.60;;;;;;5055731;28;20061;-82
2023/07/17 10:36:44;;;;;;;4.72;1.88;;;22.40;80.80;;;;;;5055225;28;20128;-82
2023/07/17 10:39:17;;;;;;;4.40;1.88;;;22.40;80.80;;;;;;5053728;28;20029;-82
2023/07/17 10:41:43;;;;;;;4.60;1.83;;;22.50;80.80;;;;;;5055371;28;20020;-83
2023/07/17 10:44:15;;;;;;;4.63;1.90;;;22.50;81.10;;;;;;5053756;28;20017;-82
2023/07/17 10:46:40;;;;;;;4.97;2.00;;;22.50;81.00;;;;;;5053289;28;20025;-81
2023/07/17 10:49:17;;;;;;;4.85;2.20;;;22.50;80.40;;;;;;5053026;28;20481;-82
2023/07/17 10:51:44;;;;;;;4.82;2.00;;;22.60;80.30;;;;;;5053555;28;20040;-82
2023/07/17 10:54:11;;;;;;;4.28;1.90;;;22.60;80.20;;;;;;5053282;28;20029;-82
2023/07/17 10:56:37;;;;;;;4.28;1.77;;;22.50;80.10;;;;;;5052836;28;20082;-82
2023/07/17 10:59:04;;;;;;;4.15;1.70;;;22.60;80.00;;;;;;5051869;28;20033;-82
2023/07/17 11:01:30;;;;;;;4.15;1.77;;;22.60;80.00;;;;;;5053164;28;20021;-82
2023/07/17 11:03:56;;;;;;;4.57;1.77;;;22.60;79.90;;;;;;5053706;28;20100;-84
2023/07/17 11:06:26;;;;;;;4.38;1.92;;;22.60;79.90;;;;;;5053567;28;20198;-82
2023/07/17 11:08:52;;;;;;;4.00;1.80;;;22.60;79.90;;;;;;5052193;28;20087;-81
2023/07/17 11:11:18;;;;;;;3.97;1.98;;;22.60;80.40;;;;;;5052153;28;20029;-82
2023/07/17 11:13:47;;;;;;;4.38;1.80;;;22.60;80.00;;;;;;5052085;28;20024;-82
2023/07/17 11:16:13;;;;;;;4.60;1.80;;;22.60;80.10;;;;;;5051714;28;20021;-82
2023/07/17 11:18:55;;;;;;;3.25;1.60;;;22.60;80.20;;;;;;5053264;28;20036;-83
2023/07/17 11:21:22;;;;;;;4.05;1.70;;;22.60;80.30;;;;;;5053150;28;20469;-82
2023/07/17 11:23:50;;;;;;;3.90;1.75;;;22.50;80.40;;;;;;5051940;28;20021;-82
2023/07/17 11:26:21;;;;;;;3.15;1.48;;;22.50;80.50;;;;;;5051310;28;20189;-83
2023/07/17 11:28:49;;;;;;;4.72;1.70;;;22.50;80.60;;;;;;5053193;28;20066;-82
2023/07/17 11:31:18;;;;;;;2.88;1.55;;;22.50;80.60;;;;;;5052829;28;20389;-82
2023/07/17 11:34:09;;;;;;;3.42;1.55;;;22.40;80.60;;;;;;5053037;28;20104;-82
2023/07/17 11:36:39;;;;;;;3.55;1.80;;;22.40;81.30;;;;;;5051190;28;20397;-81
2023/07/17 11:39:13;;;;;;;3.22;1.52;;;22.40;80.80;;;;;;5054205;28;20021;-82
2023/07/17 11:41:50;;;;;;;3.25;1.67;;;22.40;80.90;;;;;;5051770;28;20049;-82
2023/07/17 11:44:21;;;;;;;3.60;1.75;;;22.40;80.80;;;;;;5051465;28;20108;-82
2023/07/17 11:46:46;;;;;;;3.35;1.60;;;22.40;80.90;;;;;;5050865;28;20059;-82
2023/07/17 11:49:13;;;;;;;4.13;1.75;;;22.40;80.80;;;;;;5051293;28;20458;-81
2023/07/17 11:51:42;;;;;;;3.78;1.75;;;22.40;80.80;;;;;;5050981;28;20408;-81
2023/07/17 11:54:08;;;;;;;4.07;1.60;;;22.40;80.90;;;;;;5052876;28;20473;-82
2023/07/17 11:56:40;;;;;;;3.83;1.65;;;22.40;80.90;;;;;;5050648;28;20036;-82
2023/07/17 11:59:14;;;;;;;3.55;1.40;;;22.40;81.00;;;;;;5052410;28;20025;-82
2023/07/17 12:01:40;;;;;;;4.68;1.60;;;22.30;81.00;;;;;;5051392;28;20021;-82
2023/07/17 12:04:22;;;;;;;3.97;1.60;;;22.30;81.00;;;;;;5051094;28;20374;-82
2023/07/17 12:06:48;;;;;;;3.20;1.52;;;22.30;81.20;;;;;;5052247;28;20389;-82
2023/07/17 12:09:14;;;;;;;2.80;1.45;;;22.30;81.10;;;;;;5052324;28;20025;-82
2023/07/17 12:11:44;;;;;;;4.00;1.70;;;22.40;81.10;;;;;;5054691;28;20028;-82
2023/07/17 12:14:10;;;;;;;3.92;1.65;;;22.30;81.00;;;;;;5054938;28;20082;-82
2023/07/17 12:16:35;;;;;;;3.47;1.60;;;22.40;81.00;;;;;;5054430;28;20029;-82
2023/07/17 12:19:01;;;;;;;4.18;1.92;;;22.40;81.10;;;;;;5056077;28;20036;-84
2023/07/17 12:21:27;;;;;;;4.05;1.80;;;22.40;81.00;;;;;;5055995;28;20025;-83
2023/07/17 12:23:52;;;;;;;4.35;1.73;;;22.40;81.00;;;;;;5056138;28;20143;-82
2023/07/17 12:26:18;;;;;;;3.88;1.90;;;22.40;81.00;;;;;;5055276;28;20025;-82
2023/07/17 12:28:45;;;;;;;3.10;1.60;;;22.40;80.90;;;;;;5055876;28;20508;-82
2023/07/17 12:31:10;;;;;;;3.38;1.58;;;22.40;81.00;;;;;;5054571;28;20031;-82
2023/07/17 12:33:36;;;;;;;4.18;1.70;;;22.30;81.00;;;;;;5060338;28;20048;-84
2023/07/17 12:36:01;;;;;;;3.20;1.65;;;22.30;81.00;;;;;;5059291;28;20032;-83
2023/07/17 12:38:27;;;;;;;4.35;1.70;;;22.30;81.20;;;;;;5058303;28;20070;-83
2023/07/17 12:40:52;;;;;;;3.00;1.40;;;22.30;81.40;;;;;;5059885;28;20023;-84
2023/07/17 12:43:18;;;;;;;2.58;1.40;;;22.20;81.50;;;;;;5060015;28;20366;-83
2023/07/17 12:45:43;;;;;;;3.42;1.50;;;22.20;81.60;;;;;;5058281;28;20021;-82